Time;durP1;ratioP1;P1;durP2;ratioP2;P2;SDS_P1;SDS_P2;PMS_P1;PMS_P2;Temp;Humidity;BMP_temperature;BMP_pressure;BME280_temperature;BME280_humidity;BME280_pressure;Samples;Min_cycle;Max_cycle;Signal;HPM_P1;HPM_P2
2021/04/06 00:00:14;;;;;;;;;33.25;32.75;;;;;6.31;74.74;100794.13;5051932;28;11567;-73
2021/04/06 00:03:01;;;;;;;;;34.25;27.00;;;;;6.31;74.70;100796.06;5053135;28;11671;-72
2021/04/06 00:06:00;;;;;;;;;34.50;34.50;;;;;6.49;74.07;100795.19;5050564;28;11541;-72
2021/04/06 00:08:57;;;;;;;;;36.00;33.75;;;;;6.47;73.69;100800.16;5052756;28;11563;-72
2021/04/06 00:11:58;;;;;;;;;34.50;33.00;;;;;6.61;73.80;100803.78;5051972;28;11577;-72
2021/04/06 00:14:58;;;;;;;;;28.50;28.50;;;;;6.47;73.57;100799.34;5051532;28;11660;-73
2021/04/06 00:17:56;;;;;;;;;25.75;25.75;;;;;6.59;73.15;100797.75;5052586;28;11556;-72
2021/04/06 00:20:56;;;;;;;;;26.25;25.00;;;;;6.74;72.92;100804.09;5052232;28;12306;-72
2021/04/06 00:23:53;;;;;;;;;28.50;28.50;;;;;6.81;72.74;100799.03;5049317;28;11574;-72
2021/04/06 00:27:22;;;;;;;;;30.25;30.25;;;;;6.82;72.21;100806.16;5051508;28;11601;-72
2021/04/06 00:30:25;;;;;;;;;34.00;31.50;;;;;6.64;73.58;100805.91;5051901;28;12274;-73
2021/04/06 00:33:26;;;;;;;;;38.00;37.50;;;;;6.66;74.38;100794.59;5049595;28;11598;-73
2021/04/06 00:36:27;;;;;;;;;33.75;33.75;;;;;6.72;74.37;100790.66;5048108;28;11685;-74
2021/04/06 00:39:32;;;;;;;;;32.75;29.25;;;;;6.79;74.30;100796.59;5049401;28;11565;-73
2021/04/06 00:42:29;;;;;;;;;39.00;36.25;;;;;6.68;74.28;100806.13;5050239;28;11755;-73
2021/04/06 00:45:26;;;;;;;;;34.75;33.50;;;;;6.87;74.01;100804.13;5047760;28;12420;-73
2021/04/06 00:48:22;;;;;;;;;29.25;27.50;;;;;6.84;74.16;100807.50;5048553;28;11577;-72
2021/04/06 00:51:19;;;;;;;;;36.25;36.25;;;;;6.72;74.81;100798.09;5051612;28;11557;-72
2021/04/06 00:54:15;;;;;;;;;32.25;32.00;;;;;6.82;74.35;100787.72;5051286;28;12254;-72
2021/04/06 00:57:13;;;;;;;;;28.25;28.25;;;;;6.82;73.61;100790.47;5050196;28;11621;-72
2021/04/06 01:00:20;;;;;;;;;29.00;29.00;;;;;6.86;73.23;100801.69;5049565;28;11602;-71
2021/04/06 01:03:17;;;;;;;;;31.75;31.00;;;;;6.94;72.82;100792.72;5051038;28;11581;-72
2021/04/06 01:06:08;;;;;;;;;23.25;23.25;;;;;6.95;72.07;100800.66;5049336;28;11613;-73
2021/04/06 01:09:03;;;;;;;;;29.00;28.75;;;;;6.85;72.25;100802.81;5050222;28;12395;-73
2021/04/06 01:12:02;;;;;;;;;24.50;24.50;;;;;7.03;71.83;100790.09;5054977;28;11587;-73
2021/04/06 01:14:58;;;;;;;;;30.25;30.00;;;;;7.08;70.96;100793.56;5056290;28;11592;-72
2021/04/06 01:17:54;;;;;;;;;25.25;25.25;;;;;6.97;71.13;100792.94;5056758;28;11564;-73
2021/04/06 01:20:55;;;;;;;;;27.50;27.50;;;;;6.92;71.11;100790.28;5053467;28;11543;-72
2021/04/06 01:23:50;;;;;;;;;32.00;30.75;;;;;7.11;70.63;100786.63;5055668;28;11571;-72
2021/04/06 01:26:48;;;;;;;;;28.50;25.75;;;;;7.10;70.76;100783.06;5059749;28;11560;-73
2021/04/06 01:29:16;;;;;;;;;28.25;28.25;;;;;7.15;71.13;100790.41;5055465;28;12328;-73
2021/04/06 01:32:12;;;;;;;;;27.75;27.50;;;;;7.12;71.18;100782.75;5052481;28;11561;-73
2021/04/06 01:35:09;;;;;;;;;27.00;27.00;;;;;7.19;71.26;100786.72;5052508;28;12259;-73
2021/04/06 01:37:39;;;;;;;;;23.00;23.00;;;;;7.17;71.16;100786.22;5055533;28;11543;-73
2021/04/06 01:40:35;;;;;;;;;33.25;30.00;;;;;7.22;70.94;100790.81;5054571;28;11568;-73
2021/04/06 01:43:32;;;;;;;;;22.50;22.50;;;;;7.28;70.71;100786.00;5053405;28;11618;-73
2021/04/06 01:46:37;;;;;;;;;31.00;30.00;;;;;7.27;71.07;100792.63;5054803;28;11585;-73
2021/04/06 01:49:33;;;;;;;;;27.00;27.00;;;;;7.18;71.30;100795.28;5055327;28;11558;-72
2021/04/06 01:52:30;;;;;;;;;29.75;29.75;;;;;7.31;71.50;100796.44;5052755;28;11677;-73
2021/04/06 01:55:33;;;;;;;;;27.75;24.75;;;;;7.12;71.79;100791.81;5050679;28;11643;-72
2021/04/06 01:58:31;;;;;;;;;24.50;23.00;;;;;7.28;72.05;100786.00;5053621;28;12359;-73
2021/04/06 02:01:28;;;;;;;;;25.50;25.50;;;;;7.30;72.26;100792.03;5052666;28;12330;-72
2021/04/06 02:04:25;;;;;;;;;26.00;23.25;;;;;7.33;72.56;100800.50;5056387;28;11566;-72
2021/04/06 02:07:25;;;;;;;;;20.00;19.50;;;;;7.38;72.21;100802.34;5053522;28;11589;-72
2021/04/06 02:10:22;;;;;;;;;22.75;22.00;;;;;7.34;72.81;100796.59;5053633;28;11615;-73
2021/04/06 02:13:19;;;;;;;;;26.75;25.00;;;;;7.37;72.75;100798.75;5053931;28;11685;-72
2021/04/06 02:16:15;;;;;;;;;19.50;18.25;;;;;7.42;72.57;100798.63;5054020;28;11562;-72
2021/04/06 02:19:29;;;;;;;;;23.75;22.50;;;;;7.48;72.53;100796.59;5054228;28;11542;-73
2021/04/06 02:22:01;;;;;;;;;22.50;22.50;;;;;7.51;72.61;100794.06;5052155;28;11579;-74
2021/04/06 02:24:59;;;;;;;;;22.25;21.75;;;;;7.43;73.18;100792.00;5053234;28;11607;-73
2021/04/06 02:27:57;;;;;;;;;29.25;28.25;;;;;7.55;73.32;100798.94;5050108;28;11565;-72
2021/04/06 02:30:58;;;;;;;;;27.50;27.00;;;;;7.63;73.02;100799.03;5051770;28;11683;-72
2021/04/06 02:33:53;;;;;;;;;24.50;24.50;;;;;7.56;73.81;100797.81;5052280;28;11579;-73
2021/04/06 02:36:49;;;;;;;;;17.50;15.50;;;;;7.66;73.72;100792.09;5050515;28;11561;-72
2021/04/06 02:39:46;;;;;;;;;24.25;21.75;;;;;7.67;73.79;100788.25;5050940;28;11552;-72
2021/04/06 02:42:44;;;;;;;;;24.75;24.50;;;;;7.64;73.98;100794.34;5051834;28;11607;-73
2021/04/06 02:45:40;;;;;;;;;34.50;32.25;;;;;7.62;74.04;100796.59;5051349;28;11543;-72
2021/04/06 02:48:36;;;;;;;;;27.25;27.25;;;;;7.70;74.34;100795.88;5052765;28;11556;-72
2021/04/06 02:51:33;;;;;;;;;27.00;26.25;;;;;7.65;74.43;100799.53;5053638;28;11593;-72
2021/04/06 02:54:28;;;;;;;;;24.75;24.75;;;;;7.73;74.50;100798.00;5053359;28;11653;-72
2021/04/06 02:57:24;;;;;;;;;27.50;27.25;;;;;7.73;74.88;100803.50;5054117;28;11615;-72
2021/04/06 03:00:26;;;;;;;;;24.50;23.00;;;;;7.74;75.26;100808.72;5050212;28;11594;-72
2021/04/06 03:03:28;;;;;;;;;27.25;27.25;;;;;7.87;75.05;100812.53;5053358;28;12374;-72
2021/04/06 03:06:33;;;;;;;;;26.25;26.25;;;;;7.81;76.36;100817.34;5053801;28;11598;-72
2021/04/06 03:09:28;;;;;;;;;28.00;27.00;;;;;7.90;76.61;100811.94;5053176;28;11570;-72
2021/04/06 03:12:29;;;;;;;;;30.00;29.50;;;;;7.71;77.23;100817.56;5053300;28;11589;-72
2021/04/06 03:15:03;;;;;;;;;29.00;29.00;;;;;7.85;77.24;100817.56;5062592;28;11665;-72
2021/04/06 03:18:04;;;;;;;;;33.25;31.75;;;;;7.91;77.17;100816.31;5053537;28;11584;-72
2021/04/06 03:21:03;;;;;;;;;30.50;29.75;;;;;7.88;77.70;100811.41;5052137;28;11578;-72
2021/04/06 03:24:00;;;;;;;;;31.50;30.75;;;;;7.95;77.84;100811.81;5051630;28;11577;-72
2021/04/06 03:27:01;;;;;;;;;37.25;34.50;;;;;7.96;77.80;100820.88;5050765;28;11554;-72
2021/04/06 03:29:57;;;;;;;;;33.50;33.50;;;;;8.02;77.44;100820.47;5050471;28;11545;-73
2021/04/06 03:32:54;;;;;;;;;31.25;29.00;;;;;7.94;77.97;100823.13;5047489;28;12141;-72
2021/04/06 03:35:50;;;;;;;;;26.75;26.75;;;;;8.06;77.54;100818.72;5051094;28;11669;-74
2021/04/06 03:38:47;;;;;;;;;22.75;22.75;;;;;7.99;78.05;100825.78;5052935;28;11555;-72
2021/04/06 03:41:43;;;;;;;;;30.50;30.50;;;;;8.12;77.84;100826.84;5051637;28;11567;-72
2021/04/06 03:44:39;;;;;;;;;27.00;25.50;;;;;8.13;77.91;100828.47;5051022;28;11677;-72
2021/04/06 03:47:21;;;;;;;;;23.00;23.00;;;;;8.11;77.64;100830.72;5049083;28;12328;-73
2021/04/06 03:49:49;;;;;;;;;31.00;30.50;;;;;8.08;78.31;100821.16;5053011;28;12291;-72
2021/04/06 03:52:25;;;;;;;;;33.25;33.25;;;;;8.11;78.16;100823.28;5051605;28;11590;-72
2021/04/06 03:54:53;;;;;;;;;39.25;37.50;;;;;8.16;78.15;100831.44;5050959;28;12327;-72
2021/04/06 03:57:47;;;;;;;;;32.75;32.25;;;;;8.26;78.30;100827.63;5052962;28;11632;-72
2021/04/06 04:00:43;;;;;;;;;37.25;37.25;;;;;8.21;78.67;100836.03;5062851;28;11661;-73
2021/04/06 04:03:39;;;;;;;;;36.00;34.00;;;;;8.21;79.22;100833.28;5050909;28;11572;-73
2021/04/06 04:06:29;;;;;;;;;43.50;40.25;;;;;8.25;78.82;100828.75;5051471;28;11619;-73
2021/04/06 04:09:00;;;;;;;;;40.50;38.25;;;;;8.43;78.29;100822.28;5047776;28;11719;-73
2021/04/06 04:11:30;;;;;;;;;34.75;34.75;;;;;8.50;78.33;100824.59;5051764;28;11597;-73
2021/04/06 04:14:07;;;;;;;;;33.75;33.75;;;;;8.54;78.21;100823.66;5049699;28;11603;-73
2021/04/06 04:17:03;;;;;;;;;41.50;39.00;;;;;8.55;77.92;100822.53;5049617;28;11690;-73
2021/04/06 04:19:58;;;;;;;;;39.50;38.50;;;;;8.58;77.73;100827.41;5051152;28;11574;-71
2021/04/06 04:22:26;;;;;;;;;39.50;37.75;;;;;8.65;77.62;100821.44;5050844;28;11582;-74
2021/04/06 04:24:53;;;;;;;;;39.50;37.25;;;;;8.74;77.65;100818.75;5050717;28;12454;-72
2021/04/06 04:27:41;;;;;;;;;33.25;31.75;;;;;8.64;77.58;100828.91;5052431;28;11614;-72
2021/04/06 04:30:10;;;;;;;;;36.25;36.00;;;;;8.77;77.32;100820.88;5050816;28;11570;-73
2021/04/06 04:32:52;;;;;;;;;38.00;37.00;;;;;8.80;77.14;100829.34;5053406;28;11596;-73
2021/04/06 04:35:19;;;;;;;;;41.00;39.00;;;;;8.69;77.70;100836.25;5049969;28;11564;-74
2021/04/06 04:38:04;;;;;;;;;41.75;40.00;;;;;8.90;77.22;100842.06;5050504;28;11711;-73
2021/04/06 04:40:32;;;;;;;;;38.00;37.00;;;;;8.87;76.86;100837.16;5051371;28;12426;-73
2021/04/06 04:43:02;;;;;;;;;29.50;28.25;;;;;8.86;77.22;100836.34;5052323;28;11604;-73
2021/04/06 04:45:30;;;;;;;;;31.50;29.50;;;;;8.89;76.81;100840.41;5053546;28;11596;-74
2021/04/06 04:47:57;;;;;;;;;22.00;21.75;;;;;8.91;76.30;100836.22;5050804;28;11593;-73
2021/04/06 04:50:53;;;;;;;;;24.50;24.50;;;;;8.87;76.42;100843.50;5054995;28;11493;-73
2021/04/06 04:53:20;;;;;;;;;23.75;23.75;;;;;8.67;76.80;100837.69;5054306;28;11611;-73
2021/04/06 04:55:50;;;;;;;;;22.00;22.00;;;;;8.77;76.51;100834.69;5054411;28;11555;-75
2021/04/06 04:58:18;;;;;;;;;24.25;24.25;;;;;8.73;76.49;100839.19;5055766;28;11552;-74
2021/04/06 05:00:46;;;;;;;;;18.25;18.25;;;;;8.82;76.28;100840.88;5054568;28;11568;-74
2021/04/06 05:03:15;;;;;;;;;23.25;21.75;;;;;8.95;76.02;100846.63;5056672;28;11655;-74
2021/04/06 05:05:57;;;;;;;;;25.00;25.00;;;;;8.68;76.95;100853.13;5053964;28;11574;-73
2021/04/06 05:08:24;;;;;;;;;25.25;25.25;;;;;8.94;76.34;100853.25;5054302;28;11585;-73
2021/04/06 05:10:52;;;;;;;;;32.25;31.75;;;;;8.92;75.81;100853.59;5055157;28;11601;-74
2021/04/06 05:13:19;;;;;;;;;24.75;24.75;;;;;8.78;76.92;100842.63;5056954;28;11562;-73
2021/04/06 05:15:55;;;;;;;;;23.75;23.75;;;;;9.03;75.88;100846.66;5055339;28;11609;-73
2021/04/06 05:18:26;;;;;;;;;25.75;25.75;;;;;8.84;76.80;100843.31;5053446;28;12268;-74
2021/04/06 05:20:54;;;;;;;;;26.25;25.50;;;;;9.10;75.77;100852.53;5054198;28;11507;-75
2021/04/06 05:23:23;;;;;;;;;24.75;24.25;;;;;9.24;74.98;100857.97;5054849;28;11509;-74
2021/04/06 05:25:59;;;;;;;;;26.00;25.00;;;;;9.04;75.02;100844.72;5054080;28;11650;-71
2021/04/06 05:28:29;;;;;;;;;21.25;21.25;;;;;8.91;75.16;100849.19;5054584;28;11544;-73
2021/04/06 05:31:11;;;;;;;;;28.25;27.00;;;;;8.84;75.79;100846.06;5053882;28;11549;-74
2021/04/06 05:34:07;;;;;;;;;26.00;26.00;;;;;9.37;74.29;100850.72;5043333;28;12250;-74
2021/04/06 05:36:43;;;;;;;;;26.75;26.25;;;;;9.12;74.31;100850.31;5054101;28;11532;-75
2021/04/06 05:39:18;;;;;;;;;25.75;25.75;;;;;9.38;73.12;100853.16;5054338;28;11518;-76
2021/04/06 05:42:14;;;;;;;;;31.75;31.75;;;;;9.60;73.03;100848.69;5052300;28;11625;-75
2021/04/06 05:44:43;;;;;;;;;32.50;32.00;;;;;9.59;72.31;100853.41;5054591;28;11538;-76
2021/04/06 05:47:19;;;;;;;;;34.75;32.75;;;;;9.69;72.31;100853.09;5054188;28;11558;-75
2021/04/06 05:50:15;;;;;;;;;27.75;27.75;;;;;9.82;72.27;100847.78;5053602;28;12314;-77
2021/04/06 05:53:00;;;;;;;;;29.25;29.25;;;;;9.99;71.60;100850.56;5053377;28;11629;-76
2021/04/06 05:55:28;;;;;;;;;28.50;24.50;;;;;10.19;71.73;100849.91;5051570;28;11536;-75
2021/04/06 05:57:57;;;;;;;;;32.00;29.75;;;;;10.26;70.77;100839.22;5053419;28;11536;-75
2021/04/06 06:00:25;;;;;;;;;18.00;18.00;;;;;10.45;69.82;100849.16;5052028;28;11541;-76
2021/04/06 06:02:53;;;;;;;;;20.00;20.00;;;;;10.17;70.35;100832.84;5036540;28;11536;-76
2021/04/06 06:05:21;;;;;;;;;24.00;22.75;;;;;10.60;69.45;100845.09;5047310;28;11624;-75
2021/04/06 06:08:18;;;;;;;;;17.25;17.25;;;;;10.72;68.05;100837.72;5050678;28;11539;-74
2021/04/06 06:11:14;;;;;;;;;20.00;19.50;;;;;10.45;68.67;100844.44;5051993;28;11688;-74
2021/04/06 06:13:53;;;;;;;;;18.25;18.25;;;;;10.58;68.51;100837.94;5054835;28;11033;-73
2021/04/06 06:16:49;;;;;;;;;21.00;21.00;;;;;10.43;67.59;100845.91;5052479;28;11030;-74
2021/04/06 06:19:49;;;;;;;;;15.75;15.75;;;;;10.76;67.91;100844.25;5052384;28;10991;-75
2021/04/06 06:22:29;;;;;;;;;15.50;15.50;;;;;11.04;66.04;100841.91;5035428;28;11109;-75
2021/04/06 06:25:26;;;;;;;;;13.25;13.25;;;;;10.99;65.96;100849.56;5051201;28;10902;-74
2021/04/06 06:28:22;;;;;;;;;21.75;18.50;;;;;11.22;64.65;100853.72;5054744;28;10813;-76
2021/04/06 06:31:32;;;;;;;;;13.25;13.25;;;;;11.53;63.75;100860.91;5052423;28;10646;-73
2021/04/06 06:34:00;;;;;;;;;12.25;12.25;;;;;11.62;63.06;100853.38;5054098;28;11405;-76
2021/04/06 06:37:26;;;;;;;;;7.50;7.50;;;;;11.83;62.81;100857.03;5055412;28;10485;-77
2021/04/06 06:40:24;;;;;;;;;13.50;13.50;;;;;12.00;61.41;100855.31;5054160;28;10399;-76
2021/04/06 06:43:22;;;;;;;;;11.25;11.25;;;;;12.20;59.46;100869.19;5051638;28;10577;-78
2021/04/06 06:46:16;;;;;;;;;13.25;13.25;;;;;12.20;59.19;100862.84;5067739;28;10535;-76
2021/04/06 06:49:13;;;;;;;;;10.50;10.50;;;;;12.08;59.99;100868.28;5052773;28;10479;-76
2021/04/06 06:51:55;;;;;;;;;9.00;9.00;;;;;11.84;59.40;100872.53;5053020;28;10479;-76
2021/04/06 06:54:57;;;;;;;;;10.00;10.00;;;;;11.86;58.11;100874.94;5052187;28;10542;-75
2021/04/06 06:58:02;;;;;;;;;13.00;13.00;;;;;12.01;58.37;100865.25;5052693;28;11240;-77
2021/04/06 07:00:58;;;;;;;;;14.25;14.25;;;;;12.21;57.50;100865.28;5051813;28;10547;-78
2021/04/06 07:03:26;;;;;;;;;12.00;12.00;;;;;12.57;57.93;100860.22;5036067;28;10404;-76
2021/04/06 07:06:23;;;;;;;;;8.75;8.50;;;;;12.88;56.51;100863.38;5052941;28;10354;-77
2021/04/06 07:09:25;;;;;;;;;16.00;16.00;;;;;13.14;56.14;100865.88;5055458;28;10253;-76
2021/04/06 07:12:21;;;;;;;;;12.75;12.75;;;;;12.64;54.42;100869.63;5053598;28;10084;-78
2021/04/06 07:14:49;;;;;;;;;11.25;9.00;;;;;13.03;54.52;100868.28;5057829;28;10164;-78
2021/04/06 07:17:17;;;;;;;;;13.75;13.50;;;;;13.26;54.89;100867.88;5053905;28;10093;-78
2021/04/06 07:19:45;;;;;;;;;11.25;11.25;;;;;13.19;54.78;100870.38;5052586;28;10097;-78
2021/04/06 07:22:14;;;;;;;;;17.00;17.00;;;;;13.19;54.61;100873.16;5051708;28;10804;-78
2021/04/06 07:24:42;;;;;;;;;13.00;11.75;;;;;13.29;53.45;100873.56;5052803;28;9923;-76
2021/04/06 07:27:12;;;;;;;;;11.25;11.25;;;;;13.54;52.03;100877.19;5050618;28;9923;-78
2021/04/06 07:29:43;;;;;;;;;15.00;15.00;;;;;13.00;53.04;100865.38;5052534;28;9745;-78
2021/04/06 07:32:15;;;;;;;;;12.25;12.25;;;;;13.31;52.38;100864.88;5035427;28;10122;-81
2021/04/06 07:34:45;;;;;;;;;13.00;13.00;;;;;13.63;51.87;100869.53;5053674;28;10168;-78
2021/04/06 07:37:22;;;;;;;;;12.50;12.50;;;;;13.60;51.24;100873.03;5052347;28;10900;-78
2021/04/06 07:39:54;;;;;;;;;14.00;12.00;;;;;13.84;49.11;100874.19;5052084;28;9873;-75
2021/04/06 07:42:49;;;;;;;;;9.50;9.50;;;;;13.90;49.73;100858.88;5050235;28;10663;-76
2021/04/06 07:45:23;;;;;;;;;12.00;12.00;;;;;14.22;49.13;100867.41;5053398;28;9601;-76
2021/04/06 07:47:51;;;;;;;;;9.00;7.67;;;;;14.10;49.97;100873.78;5049717;28;9531;-76
2021/04/06 07:50:37;;;;;;;;;9.00;9.00;;;;;13.82;50.53;100868.97;5050759;28;9549;-75
2021/04/06 07:53:31;;;;;;;;;10.25;10.25;;;;;14.11;49.73;100873.47;5050908;28;9556;-78
2021/04/06 07:56:00;;;;;;;;;8.00;8.00;;;;;13.85;48.75;100871.03;5049240;28;9612;-77
2021/04/06 07:58:52;;;;;;;;;10.00;10.00;;;;;13.95;48.67;100863.38;5050971;28;9527;-75
2021/04/06 08:01:27;;;;;;;;;11.25;11.25;;;;;13.98;49.29;100871.84;5050879;28;9716;-77
2021/04/06 08:03:59;;;;;;;;;7.75;7.75;;;;;14.06;49.88;100864.53;5050901;28;9805;-76
2021/04/06 08:06:47;;;;;;;;;9.00;9.00;;;;;14.14;48.28;100871.94;5051698;28;9536;-78
2021/04/06 08:09:36;;;;;;;;;6.00;5.25;;;;;14.24;46.08;100865.06;5048684;28;9550;-77
2021/04/06 08:12:26;;;;;;;;;9.25;9.00;;;;;14.13;47.79;100865.56;5052128;28;9498;-76
2021/04/06 08:15:08;;;;;;;;;12.00;11.50;;;;;14.67;47.01;100864.41;5049603;28;9531;-79
2021/04/06 08:17:51;;;;;;;;;6.33;6.33;;;;;14.46;45.07;100859.81;5051504;28;9471;-77
2021/04/06 08:20:35;;;;;;;;;10.75;10.75;;;;;14.60;44.59;100856.66;5051932;28;9522;-77
2021/04/06 08:23:02;;;;;;;;;11.50;11.50;;;;;14.72;44.51;100862.19;5050822;28;9491;-77
2021/04/06 08:25:29;;;;;;;;;3.75;3.75;;;;;14.79;44.11;100855.16;5052570;28;9540;-77
2021/04/06 08:28:00;;;;;;;;;8.00;8.00;;;;;14.50;44.46;100839.66;5051981;28;9353;-78
2021/04/06 08:30:33;;;;;;;;;9.50;9.50;;;;;14.77;44.19;100854.72;5050844;28;9461;-79
2021/04/06 08:33:09;;;;;;;;;6.67;6.67;;;;;14.78;45.11;100853.56;5050818;28;9476;-75
2021/04/06 08:35:53;;;;;;;;;8.67;8.67;;;;;14.74;45.27;100843.13;5063619;28;9409;-78
2021/04/06 08:38:21;;;;;;;;;7.67;7.67;;;;;14.95;45.89;100854.06;5052767;28;9327;-80
2021/04/06 08:41:05;;;;;;;;;8.33;8.33;;;;;15.14;45.50;100847.78;5051052;28;9388;-76
2021/04/06 08:43:48;;;;;;;;;12.33;12.33;;;;;15.39;44.99;100853.19;5051695;28;9260;-79
2021/04/06 08:46:40;;;;;;;;;8.67;8.67;;;;;15.46;44.86;100850.56;5049027;28;9274;-78
2021/04/06 08:49:15;;;;;;;;;11.00;11.00;;;;;15.42;44.75;100842.16;5050684;28;9786;-78
2021/04/06 08:52:13;;;;;;;;;6.00;5.67;;;;;15.56;44.39;100855.59;5050129;28;9294;-79
2021/04/06 08:55:09;;;;;;;;;7.00;7.00;;;;;16.17;43.43;100846.69;5050517;28;8988;-76
2021/04/06 08:58:05;;;;;;;;;6.33;6.33;;;;;16.31;43.13;100843.41;5049280;28;8850;-79
2021/04/06 09:00:32;;;;;;;;;7.50;7.50;;;;;16.06;42.51;100846.47;5050713;28;9744;-77
2021/04/06 09:03:28;;;;;;;;;9.33;9.33;;;;;16.34;41.67;100851.06;5052008;28;8979;-77
2021/04/06 09:06:28;;;;;;;;;7.75;7.75;;;;;16.54;40.65;100841.50;5053929;28;8946;-79
2021/04/06 09:09:29;;;;;;;;;11.00;11.00;;;;;16.42;40.53;100850.06;5053637;28;8965;-76
2021/04/06 09:12:27;;;;;;;;;7.25;7.25;;;;;16.76;40.75;100845.56;5048127;28;8929;-78
2021/04/06 09:14:58;;;;;;;;;7.50;7.50;;;;;16.86;40.26;100844.97;5051401;28;8859;-76
2021/04/06 09:17:33;;;;;;;;;8.00;8.00;;;;;16.58;41.50;100844.41;5048788;28;8843;-76
2021/04/06 09:20:15;;;;;;;;;7.25;7.25;;;;;16.51;40.90;100839.47;5049500;28;8847;-78
2021/04/06 09:23:11;;;;;;;;;11.50;11.50;;;;;16.74;40.92;100833.16;5049600;28;8842;-77
2021/04/06 09:25:49;;;;;;;;;12.25;11.25;;;;;16.63;39.77;100835.69;5050921;28;8839;-75
2021/04/06 09:28:16;;;;;;;;;9.25;9.25;;;;;16.75;39.32;100837.56;5052632;28;8890;-76
2021/04/06 09:30:52;;;;;;;;;9.00;9.00;;;;;16.60;38.75;100825.28;5057074;28;8867;-75
2021/04/06 09:33:22;;;;;;;;;9.50;9.00;;;;;16.47;39.43;100829.41;5056446;28;8827;-79
2021/04/06 09:36:04;;;;;;;;;6.50;6.50;;;;;17.06;39.70;100833.78;5052608;28;9701;-75
2021/04/06 09:38:36;;;;;;;;;6.75;6.75;;;;;16.94;38.18;100835.56;5054737;28;8843;-73
2021/04/06 09:41:04;;;;;;;;;8.25;8.25;;;;;17.21;38.22;100844.03;5053152;28;9641;-75
2021/04/06 09:44:04;;;;;;;;;7.50;7.50;;;;;17.20;37.91;100834.84;5057986;28;8866;-76
2021/04/06 09:46:35;;;;;;;;;6.75;6.75;;;;;17.59;38.12;100834.69;5055152;28;8946;-77
2021/04/06 09:49:32;;;;;;;;;5.75;5.75;;;;;16.94;39.95;100840.31;5052845;28;9052;-74
2021/04/06 09:52:07;;;;;;;;;9.25;9.25;;;;;17.31;38.82;100837.00;5055046;28;8881;-78
2021/04/06 09:54:44;;;;;;;;;7.75;7.75;;;;;17.30;39.21;100830.59;5055229;28;8846;-74
2021/04/06 09:57:12;;;;;;;;;8.00;8.00;;;;;17.62;38.69;100836.72;5054049;28;9021;-77
2021/04/06 09:59:45;;;;;;;;;8.00;8.00;;;;;17.51;38.80;100821.78;5053152;28;8826;-76
2021/04/06 10:02:43;;;;;;;;;9.00;9.00;;;;;17.10;39.17;100829.03;5055281;28;8857;-75
2021/04/06 10:05:25;;;;;;;;;12.25;12.25;;;;;17.40;38.18;100837.56;5053831;28;8881;-76
2021/04/06 10:07:52;;;;;;;;;8.25;8.25;;;;;17.35;37.81;100827.50;5056890;28;8863;-76
2021/04/06 10:10:24;;;;;;;;;11.75;10.00;;;;;17.59;35.74;100820.72;5068866;28;8847;-77
2021/04/06 10:12:51;;;;;;;;;9.00;9.00;;;;;17.73;36.23;100814.56;5071730;28;8881;-76
2021/04/06 10:15:20;;;;;;;;;9.00;9.00;;;;;17.06;37.67;100805.81;5070935;28;8835;-76
2021/04/06 10:17:47;;;;;;;;;6.75;6.75;;;;;17.42;36.54;100810.03;5071179;28;8889;-78
2021/04/06 10:20:43;;;;;;;;;10.25;10.25;;;;;17.22;37.00;100810.09;5054211;28;8847;-77
2021/04/06 10:23:11;;;;;;;;;7.50;7.50;;;;;17.80;36.04;100799.88;5052773;28;8843;-77
2021/04/06 10:26:02;;;;;;;;;9.25;7.50;;;;;18.26;34.80;100806.13;5053348;28;8975;-78
2021/04/06 10:28:31;;;;;;;;;8.75;8.75;;;;;18.21;34.19;100798.03;5052422;28;8835;-79
2021/04/06 10:31:21;;;;;;;;;7.50;7.50;;;;;18.11;33.95;100790.31;5039646;28;8835;-75
2021/04/06 10:34:16;;;;;;;;;7.00;7.00;;;;;17.82;32.43;100803.91;5052459;28;8865;-74
2021/04/06 10:37:08;;;;;;;;;3.25;3.25;;;;;17.28;33.90;100784.66;5051579;28;8893;-76
2021/04/06 10:39:38;;;;;;;;;8.50;7.50;;;;;16.97;33.90;100782.91;5032868;28;8871;-75
2021/04/06 10:42:20;;;;;;;;;7.75;7.75;;;;;17.89;32.06;100778.03;5044527;28;8835;-78
2021/04/06 10:44:48;;;;;;;;;4.50;4.25;;;;;18.22;31.79;100782.84;5055115;28;8924;-76
2021/04/06 10:47:25;;;;;;;;;5.00;5.00;;;;;17.95;31.52;100773.72;5053119;28;8857;-77
2021/04/06 10:49:58;;;;;;;;;6.50;6.50;;;;;18.17;31.13;100772.81;5051585;28;8863;-78
2021/04/06 10:52:35;;;;;;;;;5.50;5.50;;;;;18.01;30.99;100769.38;5057730;28;9642;-78
2021/04/06 10:55:08;;;;;;;;;6.50;6.50;;;;;18.06;30.90;100761.47;5069745;28;8839;-76
2021/04/06 10:58:08;;;;;;;;;7.25;7.25;;;;;18.03;30.67;100758.63;5045298;28;8833;-78
2021/04/06 11:00:40;;;;;;;;;6.50;6.25;;;;;17.78;31.72;100758.28;5052550;28;8878;-78
2021/04/06 11:03:45;;;;;;;;;7.00;7.00;;;;;17.85;31.20;100758.38;5053291;28;9540;-79
2021/04/06 11:06:23;;;;;;;;;6.25;6.00;;;;;17.96;30.09;100753.75;5048365;28;8869;-75
2021/04/06 11:08:52;;;;;;;;;5.00;5.00;;;;;17.57;30.95;100738.38;5052902;28;8863;-73
2021/04/06 11:11:22;;;;;;;;;8.75;8.75;;;;;18.01;31.64;100739.41;5053953;28;8900;-78
2021/04/06 11:13:50;;;;;;;;;7.00;7.00;;;;;18.44;30.60;100731.53;5051597;28;9611;-77
2021/04/06 11:16:48;;;;;;;;;10.25;10.25;;;;;19.04;30.71;100750.16;5054433;28;8831;-77
2021/04/06 11:19:33;;;;;;;;;6.50;6.50;;;;;19.19;30.14;100743.47;5053985;28;8863;-77
2021/04/06 11:22:06;;;;;;;;;8.25;8.25;;;;;19.07;30.10;100747.38;5053019;28;8871;-77
2021/04/06 11:25:03;;;;;;;;;7.50;7.50;;;;;19.41;30.04;100741.66;5053844;28;8911;-74
2021/04/06 11:28:05;;;;;;;;;6.75;6.75;;;;;20.03;29.36;100738.84;5053380;28;8962;-76
2021/04/06 11:30:47;;;;;;;;;8.25;8.25;;;;;19.53;29.38;100744.13;5037316;28;8932;-77
2021/04/06 11:33:42;;;;;;;;;8.00;8.00;;;;;19.52;29.97;100750.94;5069549;28;8870;-77
2021/04/06 11:36:39;;;;;;;;;6.75;6.75;;;;;19.40;29.31;100752.06;5071707;28;8934;-77
2021/04/06 11:39:41;;;;;;;;;6.00;6.00;;;;;19.57;29.00;100739.38;5054433;28;8941;-77
2021/04/06 11:42:11;;;;;;;;;7.25;7.25;;;;;19.06;29.21;100742.97;5086893;28;8862;-76
2021/04/06 11:44:41;;;;;;;;;8.50;8.50;;;;;18.98;28.03;100740.50;5061660;28;9591;-75
2021/04/06 11:47:11;;;;;;;;;7.25;7.25;;;;;18.33;28.45;100730.63;5056539;28;9632;-72
2021/04/06 11:49:53;;;;;;;;;7.75;7.75;;;;;18.26;28.34;100736.94;5052559;28;8878;-74
2021/04/06 11:52:43;;;;;;;;;4.25;4.25;;;;;18.71;28.25;100745.41;5050223;28;8913;-74
2021/04/06 11:55:38;;;;;;;;;7.25;7.00;;;;;17.62;29.39;100722.06;5051808;28;8908;-73
2021/04/06 11:58:06;;;;;;;;;6.50;6.50;;;;;18.04;28.65;100727.47;5054076;28;8859;-76
2021/04/06 12:01:03;;;;;;;;;5.50;5.50;;;;;18.51;28.24;100719.59;5052560;28;8866;-74
2021/04/06 12:04:00;;;;;;;;;27.00;24.25;;;;;18.43;29.72;100717.91;5052914;28;8888;-78
2021/04/06 12:06:55;;;;;;;;;13.00;13.00;;;;;18.42;34.24;100708.72;5049128;28;10129;-78
2021/04/06 12:09:38;;;;;;;;;141.25;137.75;;;;;18.47;33.09;100708.34;5057173;28;10334;-78
2021/04/06 12:12:34;;;;;;;;;6.25;6.25;;;;;18.63;29.63;100702.50;5052724;28;11620;-75
2021/04/06 12:15:02;;;;;;;;;101.75;98.75;;;;;18.93;33.87;100691.19;5052569;28;9630;-81
2021/04/06 12:17:58;;;;;;;;;112.25;104.50;;;;;19.40;35.29;100698.78;5051113;28;11567;-81
2021/04/06 12:20:57;;;;;;;;;72.75;61.25;;;;;19.54;33.85;100691.63;5057790;28;11624;-77
2021/04/06 12:23:54;;;;;;;;;183.00;177.50;;;;;19.78;38.50;100676.94;5049804;28;11699;-78
2021/04/06 12:26:37;;;;;;;;;92.25;83.50;;;;;19.94;30.23;100688.69;5051158;28;8858;-82
2021/04/06 12:29:06;;;;;;;;;95.50;94.75;;;;;19.74;30.34;100681.75;5047589;28;11596;-78
2021/04/06 12:31:47;;;;;;;;;85.50;76.00;;;;;19.54;35.38;100678.41;5051152;28;11560;-78
2021/04/06 12:34:43;;;;;;;;;48.00;41.25;;;;;19.99;30.47;100670.63;5049869;28;11588;-80
2021/04/06 12:37:39;;;;;;;;;54.00;45.50;;;;;18.99;33.32;100678.44;5051332;28;8973;-81
2021/04/06 12:40:35;;;;;;;;;9.50;9.50;;;;;19.20;32.04;100663.78;5048213;28;9877;-79
2021/04/06 12:43:05;;;;;;;;;23.00;22.25;;;;;19.14;30.64;100668.94;5050388;28;8854;-81
2021/04/06 12:46:00;;;;;;;;;58.50;48.25;;;;;19.47;33.37;100650.31;5052049;28;8842;-81